WetterOnline ( https://www.wetteronline.de )

Wetter aktuell Cembra Lisignago

Aktuelles Wetter: Paganella (2129m)

6-stündlich | Neueste Meldungen
Ortszeit Temperatur Wetter
Mo, 21.06. 20:00 15.4° C leicht bewölkt
Mo, 21.06. 14:00 17.0° C leicht bewölkt
Mo, 21.06. 8:00 11.0° C leichter Regen
Mo, 21.06. 2:00 11.3° C leicht bewölkt
So, 20.06. 20:00 13.0° C wolkig
So, 20.06. 14:00 17.8° C wolkig
So, 20.06. 8:00 12.4° C wolkig
So, 20.06. 2:00 13.8° C leicht bewölkt
Ortszeit Temperatur Wetter
Di, 22.06. 1:00 10.7° C leicht bewölkt
Di, 22.06. 0:55 11° C leicht bewölkt
Di, 22.06. 0:00 10.8° C leicht bewölkt
Mo, 21.06. 23:55 11° C leicht bewölkt
Mo, 21.06. 23:00 10.9° C fast wolkenlos
Mo, 21.06. 22:55 11° C leicht bewölkt
Mo, 21.06. 22:00 11.4° C leicht bewölkt
Mo, 21.06. 21:55 11° C leicht bewölkt
Mo, 21.06. 21:00 13.2° C leicht bewölkt
Ortszeit Relative Feuchte Sichtweite
Mo, 21.06. 20:00 66% 30 km
Mo, 21.06. 14:00 67% 30 km
Mo, 21.06. 8:00 100% 100 m
Mo, 21.06. 2:00 86% 25 km
So, 20.06. 20:00 81% 20 km
So, 20.06. 14:00 57% 25 km
So, 20.06. 8:00 78% 30 km
So, 20.06. 2:00 90% 20 km
Ortszeit Relative Feuchte Sichtweite
Di, 22.06. 1:00 89% 30 km
Di, 22.06. 0:55 87% >10 km
Di, 22.06. 0:00 86% 30 km
Mo, 21.06. 23:55 87% >10 km
Mo, 21.06. 23:00 81% 30 km
Mo, 21.06. 22:55 82% >10 km
Mo, 21.06. 22:00 77% 25 km
Mo, 21.06. 21:55 82% >10 km
Mo, 21.06. 21:00 70% 20 km
Ortszeit Niederschlagsmenge Niederschlagsart
Mo, 21.06. 20:00 0.1 l/m2 in 12 Std. -
Mo, 21.06. 14:00 0.1 l/m2 in 6 Std. Regen
Mo, 21.06. 8:00 0.8 l/m2 in 12 Std. Regen, Nebel
Mo, 21.06. 2:00 0.0 l/m2 in 6 Std. -
So, 20.06. 20:00 0.0 l/m2 in 12 Std. -
So, 20.06. 14:00 0.0 l/m2 in 6 Std. -
So, 20.06. 8:00 0.0 l/m2 in 12 Std. -
So, 20.06. 2:00 0.0 l/m2 in 6 Std. -
Ortszeit Niederschlagsmenge Niederschlagsart
Di, 22.06. 1:00 keine Meldung -
Di, 22.06. 0:55 keine Meldung -
Di, 22.06. 0:00 keine Meldung -
Mo, 21.06. 23:55 keine Meldung -
Mo, 21.06. 23:00 keine Meldung -
Mo, 21.06. 22:55 keine Meldung -
Mo, 21.06. 22:00 keine Meldung -
Mo, 21.06. 21:55 keine Meldung -
Mo, 21.06. 21:00 keine Meldung -
Ortszeit Stärke Spitze Richtung
km/h Bft. km/h Grad Sektor
Mo, 21.06. 20:00 20 4 - 220° SW
Mo, 21.06. 14:00 19 3 - 210° SW
Mo, 21.06. 8:00 30 5 - 220° SW
Mo, 21.06. 2:00 26 4 - 220° SW
So, 20.06. 20:00 30 5 - 220° SW
So, 20.06. 14:00 13 3 - 220° SW
So, 20.06. 8:00 13 3 - 240° SW
So, 20.06. 2:00 0 0 - - -
Ortszeit Stärke Spitze Richtung
km/h Bft. km/h Grad Sektor
Di, 22.06. 1:00 15 3 - 210° SW
Di, 22.06. 0:55 15 3 - 210° SW
Di, 22.06. 0:00 15 3 - 220° SW
Mo, 21.06. 23:55 15 3 - 220° SW
Mo, 21.06. 23:00 17 3 - 220° SW
Mo, 21.06. 22:55 17 3 - 220° SW
Mo, 21.06. 22:00 15 3 - 210° SW
Mo, 21.06. 21:55 15 3 - 210° SW
Mo, 21.06. 21:00 22 4 - 210° SW
Ortszeit Untergrenze Bedeckung Gattung
total tief tief mittel hoch
Mo, 21.06. 20:00 750 m 4/8 4/8 Cu - -
Mo, 21.06. 14:00 600 m 3/8 3/8 Cu - -
Mo, 21.06. 8:00 - 8/8 - - - -
Mo, 21.06. 2:00 1800 m 4/8 3/8 - As Cs
So, 20.06. 20:00 900 m 6/8 2/8 Sc As Cs
So, 20.06. 14:00 1200 m 7/8 4/8 Sc - Cs
So, 20.06. 8:00 1200 m 7/8 4/8 Sc Ac -
So, 20.06. 2:00 1800 m 6/8 3/8 - As Cs
Ortszeit Bedeckungsgrad in Achtel und Wolkenuntergrenze
Di, 22.06. 1:00 4(600m)
Di, 22.06. 0:55 3-4(600m)
Di, 22.06. 0:00 3(600m)
Mo, 21.06. 23:55 3-4(600m)
Mo, 21.06. 23:00 1(750m)
Mo, 21.06. 22:55 1-2(750m)
Mo, 21.06. 22:00 2(750m)
Mo, 21.06. 21:55 1-2(750m)
Mo, 21.06. 21:00 4(750m)
Ortszeit Stationsdruck (hPa) Tendenz (hPa in 3 Std.)
Mo, 21.06. 20:00 787 - 0,5
Mo, 21.06. 14:00 788 0,0
Mo, 21.06. 8:00 788 + 0,1
Mo, 21.06. 2:00 788 - 0,7
So, 20.06. 20:00 789 - 1,2
So, 20.06. 14:00 791 - 0,7
So, 20.06. 8:00 792 0,0
So, 20.06. 2:00 793 0,0
Ortszeit Stationsdruck (hPa) Tendenz (hPa in 3 Std.)
Di, 22.06. 1:00 787 + 0,2
Di, 22.06. 0:55 - keine Meldung
Di, 22.06. 0:00 788 + 0,3
Mo, 21.06. 23:55 - keine Meldung
Mo, 21.06. 23:00 787 + 0,2
Mo, 21.06. 22:55 - keine Meldung
Mo, 21.06. 22:00 787 - 0,2
Mo, 21.06. 21:55 - keine Meldung
Mo, 21.06. 21:00 787 - 0,3
Ortszeit Schneehöhe (cm)
Mo, 21.06. 20:00 -
Mo, 21.06. 14:00 -
Mo, 21.06. 8:00 0
Mo, 21.06. 2:00 -
So, 20.06. 20:00 -
So, 20.06. 14:00 -
So, 20.06. 8:00 0
So, 20.06. 2:00 -
Ortszeit Schneehöhe (cm)
Di, 22.06. 1:00 -
Di, 22.06. 0:55 -
Di, 22.06. 0:00 -
Mo, 21.06. 23:55 -
Mo, 21.06. 23:00 -
Mo, 21.06. 22:55 -
Mo, 21.06. 22:00 -
Mo, 21.06. 21:55 -
Mo, 21.06. 21:00 -
Link zu dieser Seite / Seite empfehlen

Das Wetter in ...